Time;durP1;ratioP1;P1;durP2;ratioP2;P2;SDS_P1;SDS_P2;PMS_P1;PMS_P2;Temp;Humidity;BMP_temperature;BMP_pressure;BME280_temperature;BME280_humidity;BME280_pressure;Samples;Min_cycle;Max_cycle;Signal;HPM_P1;HPM_P2
2023/09/11 00:00:41;;;;;;;27.35;11.23;;;22.70;99.90;;;;;;5014876;28;20038;-72
2023/09/11 00:03:06;;;;;;;28.67;10.55;;;22.70;99.90;;;;;;5014996;28;20469;-72
2023/09/11 00:05:32;;;;;;;24.25;10.73;;;22.70;99.90;;;;;;4998593;28;20133;-72
2023/09/11 00:07:58;;;;;;;27.83;11.48;;;22.70;99.90;;;;;;5015226;28;20132;-72
2023/09/11 00:10:23;;;;;;;26.13;11.23;;;22.70;99.90;;;;;;5014896;28;20513;-72
2023/09/11 00:12:49;;;;;;;26.30;11.52;;;22.70;99.90;;;;;;5014866;28;20102;-72
2023/09/11 00:15:15;;;;;;;25.98;10.80;;;22.60;99.90;;;;;;5014800;28;20041;-72
2023/09/11 00:17:40;;;;;;;22.75;11.02;;;22.60;99.90;;;;;;5015052;28;20049;-72
2023/09/11 00:20:10;;;;;;;25.35;11.85;;;22.60;99.90;;;;;;5014852;28;20041;-72
2023/09/11 00:22:36;;;;;;;21.88;10.82;;;22.60;99.90;;;;;;5015038;28;20136;-72
2023/09/11 00:25:02;;;;;;;30.98;12.30;;;22.60;99.90;;;;;;5016857;28;20050;-72
2023/09/11 00:27:28;;;;;;;31.63;11.95;;;22.50;99.90;;;;;;5018615;28;20064;-72
2023/09/11 00:29:53;;;;;;;27.42;11.00;;;22.50;99.90;;;;;;5018496;28;20126;-72
2023/09/11 00:32:19;;;;;;;33.47;12.35;;;22.50;99.90;;;;;;5018088;28;20406;-72
2023/09/11 00:34:45;;;;;;;23.33;10.85;;;22.40;99.90;;;;;;5018598;28;20144;-72
2023/09/11 00:37:11;;;;;;;31.48;11.15;;;22.40;99.90;;;;;;5018136;28;20128;-72
2023/09/11 00:39:37;;;;;;;22.42;11.13;;;22.40;99.90;;;;;;5018057;28;20041;-72
2023/09/11 00:42:02;;;;;;;25.48;12.00;;;22.40;99.90;;;;;;5017985;28;20076;-72
2023/09/11 00:44:29;;;;;;;25.52;10.75;;;22.30;99.90;;;;;;5018001;28;20120;-72
2023/09/11 00:46:55;;;;;;;29.00;12.30;;;22.30;99.90;;;;;;5018761;28;20363;-72
2023/09/11 00:49:22;;;;;;;25.17;11.88;;;22.30;99.90;;;;;;5035581;28;20111;-72
2023/09/11 00:51:50;;;;;;;25.92;12.10;;;22.30;99.90;;;;;;5035793;28;20034;-72
2023/09/11 00:54:18;;;;;;;24.45;11.43;;;22.30;99.90;;;;;;5001798;28;20064;-72
2023/09/11 00:56:46;;;;;;;23.50;11.57;;;22.30;99.90;;;;;;5017745;28;20037;-72
2023/09/11 00:59:13;;;;;;;26.92;11.60;;;22.30;99.90;;;;;;5017635;28;20429;-72
2023/09/11 01:01:41;;;;;;;27.17;10.95;;;22.30;99.90;;;;;;5017861;28;20048;-72
2023/09/11 01:04:08;;;;;;;21.75;11.07;;;22.30;99.90;;;;;;5017581;28;20042;-72
2023/09/11 01:06:33;;;;;;;22.83;11.55;;;22.20;99.90;;;;;;5017599;28;20064;-72
2023/09/11 01:09:00;;;;;;;24.23;11.80;;;22.20;99.90;;;;;;5017755;28;20041;-72
2023/09/11 01:11:25;;;;;;;25.25;10.98;;;22.20;99.90;;;;;;5017448;28;20562;-72
2023/09/11 01:13:51;;;;;;;29.77;12.43;;;22.20;99.90;;;;;;5017460;28;20116;-72
2023/09/11 01:16:36;;;;;;;34.30;12.18;;;22.20;99.90;;;;;;5017922;28;20130;-72
2023/09/11 01:19:26;;;;;;;27.27;11.88;;;22.20;99.90;;;;;;5017407;28;20037;-72
2023/09/11 01:22:13;;;;;;;32.22;11.82;;;22.20;99.90;;;;;;5017406;28;20516;-72
2023/09/11 01:25:00;;;;;;;25.38;11.65;;;22.10;99.90;;;;;;5017236;28;20081;-72
2023/09/11 01:28:01;;;;;;;25.17;11.55;;;22.10;99.90;;;;;;5000862;28;20041;-72
2023/09/11 01:30:28;;;;;;;28.05;11.82;;;22.10;99.90;;;;;;5017178;28;20033;-72
2023/09/11 01:32:54;;;;;;;25.20;12.13;;;22.00;99.90;;;;;;5017195;28;20521;-72
2023/09/11 01:35:20;;;;;;;30.92;12.50;;;22.00;99.90;;;;;;5017053;28;20041;-72
2023/09/11 01:37:46;;;;;;;24.98;12.40;;;22.00;99.90;;;;;;5017018;28;20140;-72
2023/09/11 01:40:11;;;;;;;30.73;11.93;;;21.90;99.90;;;;;;5016962;28;20076;-72
2023/09/11 01:42:44;;;;;;;26.00;12.10;;;21.90;99.90;;;;;;5016876;28;20041;-72
2023/09/11 01:45:13;;;;;;;31.48;12.48;;;21.90;99.90;;;;;;5016749;28;20414;-72
2023/09/11 01:47:39;;;;;;;27.13;12.80;;;21.90;99.90;;;;;;5016745;28;20406;-72
2023/09/11 01:50:06;;;;;;;26.85;12.70;;;21.90;99.90;;;;;;5017062;28;20045;-72
2023/09/11 01:52:32;;;;;;;24.92;11.40;;;21.90;99.90;;;;;;5016924;28;20095;-72
2023/09/11 01:54:58;;;;;;;26.02;12.90;;;21.90;99.90;;;;;;5016660;28;20068;-72
2023/09/11 01:57:27;;;;;;;22.17;11.68;;;21.80;99.90;;;;;;5016596;28;20081;-72
2023/09/11 01:59:53;;;;;;;25.77;12.02;;;21.80;99.90;;;;;;5016795;28;20038;-72
2023/09/11 02:02:19;;;;;;;33.13;12.27;;;21.80;99.90;;;;;;5016496;28;20437;-72
2023/09/11 02:04:45;;;;;;;22.25;11.50;;;21.80;99.90;;;;;;5016592;28;20132;-72
2023/09/11 02:07:10;;;;;;;30.70;12.15;;;21.70;99.90;;;;;;5016470;28;20383;-72
2023/09/11 02:09:36;;;;;;;26.63;12.20;;;21.70;99.90;;;;;;5016430;28;20098;-72
2023/09/11 02:12:01;;;;;;;29.83;11.98;;;21.70;99.90;;;;;;5016287;28;20049;-72
2023/09/11 02:14:28;;;;;;;24.83;11.80;;;21.70;99.90;;;;;;5016371;28;20041;-72
2023/09/11 02:16:54;;;;;;;29.63;11.73;;;21.70;99.90;;;;;;5000200;28;20048;-72
2023/09/11 02:19:19;;;;;;;32.38;13.60;;;21.60;99.90;;;;;;5016195;28;20406;-72
2023/09/11 02:21:45;;;;;;;21.95;12.30;;;21.70;99.90;;;;;;5016180;28;20048;-72
2023/09/11 02:24:10;;;;;;;25.58;11.73;;;21.60;99.90;;;;;;5016089;28;20045;-72
2023/09/11 02:26:36;;;;;;;25.08;12.07;;;21.50;99.90;;;;;;5016130;28;20042;-72
2023/09/11 02:29:01;;;;;;;26.58;12.45;;;21.50;99.90;;;;;;5016114;28;20037;-72
2023/09/11 02:31:27;;;;;;;32.90;12.20;;;21.50;99.90;;;;;;5016126;28;20083;-72
2023/09/11 02:33:53;;;;;;;25.75;12.15;;;21.50;99.90;;;;;;5016081;28;20494;-72
2023/09/11 02:36:18;;;;;;;27.42;12.57;;;21.50;99.90;;;;;;5016013;28;20040;-72
2023/09/11 02:38:44;;;;;;;24.25;11.80;;;21.50;99.90;;;;;;5015906;28;20041;-72
2023/09/11 02:41:09;;;;;;;26.02;11.77;;;21.50;99.90;;;;;;5015849;28;20132;-72
2023/09/11 02:43:35;;;;;;;26.30;11.55;;;21.40;99.90;;;;;;4999548;28;20037;-72
2023/09/11 02:46:00;;;;;;;29.08;12.10;;;21.40;99.90;;;;;;5015769;28;20075;-72
2023/09/11 02:48:27;;;;;;;28.83;11.10;;;21.40;99.90;;;;;;4998981;28;20494;-72
2023/09/11 02:50:53;;;;;;;27.70;11.95;;;21.30;99.90;;;;;;5015592;28;20037;-72
2023/09/11 02:53:18;;;;;;;30.23;11.93;;;21.40;99.90;;;;;;5015620;28;20036;-72
2023/09/11 02:55:44;;;;;;;27.90;12.48;;;21.40;99.90;;;;;;5015673;28;20567;-72
2023/09/11 02:58:09;;;;;;;24.20;11.20;;;21.40;99.90;;;;;;5015862;28;20037;-72
2023/09/11 03:00:35;;;;;;;27.05;12.43;;;21.40;99.90;;;;;;5015566;28;20045;-72
2023/09/11 03:03:03;;;;;;;23.23;12.50;;;21.30;99.90;;;;;;5015481;28;20041;-72
2023/09/11 03:05:32;;;;;;;29.80;13.18;;;21.30;99.90;;;;;;4999338;28;20042;-72
2023/09/11 03:07:59;;;;;;;31.25;13.32;;;21.30;99.90;;;;;;5015432;28;20036;-72
2023/09/11 03:10:26;;;;;;;32.75;13.73;;;21.30;99.90;;;;;;5015460;28;20067;-72
2023/09/11 03:12:52;;;;;;;27.27;13.02;;;21.30;99.90;;;;;;5015351;28;20048;-72
2023/09/11 03:15:17;;;;;;;27.65;13.65;;;21.30;99.90;;;;;;5015459;28;20038;-72
2023/09/11 03:17:47;;;;;;;26.70;13.23;;;21.20;99.90;;;;;;4999068;28;20038;-72
2023/09/11 03:20:13;;;;;;;29.52;12.60;;;21.20;99.90;;;;;;5015363;28;20038;-72
2023/09/11 03:22:38;;;;;;;28.45;12.60;;;21.10;99.90;;;;;;5015554;28;20140;-72
2023/09/11 03:25:04;;;;;;;26.90;12.95;;;21.10;99.90;;;;;;4998942;28;20034;-72
2023/09/11 03:27:30;;;;;;;24.33;12.23;;;21.10;99.90;;;;;;5015311;28;20072;-72
2023/09/11 03:29:55;;;;;;;32.80;13.43;;;21.10;99.90;;;;;;5015544;28;20037;-72
2023/09/11 03:32:21;;;;;;;26.73;12.63;;;21.10;99.90;;;;;;4998769;28;20486;-72
2023/09/11 03:34:53;;;;;;;31.60;14.25;;;21.10;99.90;;;;;;5015190;28;20128;-72
2023/09/11 03:37:20;;;;;;;32.38;12.75;;;21.10;99.90;;;;;;5015482;28;20526;-72
2023/09/11 03:39:45;;;;;;;27.45;13.00;;;21.10;99.90;;;;;;5015174;28;20524;-72
2023/09/11 03:42:11;;;;;;;24.58;13.35;;;21.00;99.90;;;;;;5015155;28;20037;-72
2023/09/11 03:44:36;;;;;;;32.88;13.27;;;21.10;99.90;;;;;;5015117;28;20076;-72
2023/09/11 03:47:02;;;;;;;30.42;13.30;;;21.10;99.90;;;;;;5015147;28;20040;-72
2023/09/11 03:49:28;;;;;;;29.73;12.98;;;21.10;99.90;;;;;;5015375;28;20047;-72
2023/09/11 03:51:53;;;;;;;29.45;13.88;;;21.10;99.90;;;;;;5015013;28;20038;-72
2023/09/11 03:54:19;;;;;;;32.88;13.20;;;21.10;99.90;;;;;;5015106;28;20049;-72
2023/09/11 03:56:44;;;;;;;27.27;13.55;;;21.10;99.90;;;;;;5015074;28;20037;-72
2023/09/11 03:59:10;;;;;;;28.65;13.07;;;21.00;99.90;;;;;;5016018;28;20046;-72
2023/09/11 04:01:35;;;;;;;32.25;13.00;;;21.00;99.90;;;;;;5018780;28;20143;-72
2023/09/11 04:04:01;;;;;;;32.33;13.35;;;21.00;99.90;;;;;;5018711;28;20037;-72
2023/09/11 04:06:27;;;;;;;36.28;13.93;;;21.00;99.90;;;;;;5018720;28;20046;-72
2023/09/11 04:08:52;;;;;;;26.63;12.65;;;21.10;99.90;;;;;;5018661;28;20050;-72
2023/09/11 04:11:22;;;;;;;26.42;12.52;;;21.00;99.90;;;;;;5018596;28;20065;-72
2023/09/11 04:13:49;;;;;;;23.42;13.27;;;21.00;99.90;;;;;;5018690;28;20041;-72
2023/09/11 04:16:15;;;;;;;33.60;12.68;;;21.10;99.90;;;;;;5018455;28;20383;-72
2023/09/11 04:18:44;;;;;;;34.63;12.93;;;21.10;99.90;;;;;;5018516;28;20045;-72
2023/09/11 04:21:10;;;;;;;26.92;12.40;;;21.10;99.90;;;;;;5018329;28;20033;-72
2023/09/11 04:23:35;;;;;;;28.17;13.57;;;21.10;99.90;;;;;;5018400;28;20083;-72
2023/09/11 04:26:01;;;;;;;34.50;12.98;;;21.10;99.90;;;;;;5018595;28;20045;-72
2023/09/11 04:28:27;;;;;;;32.53;12.60;;;21.00;99.90;;;;;;5018269;28;20509;-72
2023/09/11 04:30:52;;;;;;;28.33;11.60;;;21.10;99.90;;;;;;5018077;28;20034;-72
2023/09/11 04:33:18;;;;;;;28.65;13.63;;;21.10;99.90;;;;;;5018165;28;20041;-72
2023/09/11 04:35:44;;;;;;;31.00;13.40;;;21.10;99.90;;;;;;5018182;28;20049;-72
2023/09/11 04:38:10;;;;;;;28.13;12.40;;;21.00;99.90;;;;;;5018191;28;20045;-72
2023/09/11 04:40:36;;;;;;;33.42;13.15;;;21.00;99.90;;;;;;5018253;28;20043;-72
2023/09/11 04:43:02;;;;;;;28.55;12.10;;;21.00;99.90;;;;;;5018231;28;20045;-72
2023/09/11 04:45:27;;;;;;;24.30;11.95;;;21.10;99.90;;;;;;5018037;28;20502;-72
2023/09/11 04:47:53;;;;;;;31.10;13.38;;;21.10;99.90;;;;;;5018046;28;20473;-72
2023/09/11 04:50:18;;;;;;;31.40;13.55;;;21.00;99.90;;;;;;5017933;28;20045;-72
2023/09/11 04:52:44;;;;;;;31.42;12.98;;;21.00;99.90;;;;;;5017835;28;20037;-72
2023/09/11 04:55:10;;;;;;;28.08;11.77;;;21.00;99.90;;;;;;5017738;28;20037;-72
2023/09/11 04:57:36;;;;;;;28.77;13.02;;;21.10;99.90;;;;;;5017816;28;20226;-72
2023/09/11 05:00:09;;;;;;;29.23;12.10;;;21.00;99.90;;;;;;5017758;28;20045;-72
2023/09/11 05:02:35;;;;;;;34.00;11.57;;;21.00;99.90;;;;;;5017734;28;20119;-72
2023/09/11 05:05:00;;;;;;;32.22;12.38;;;21.00;99.90;;;;;;5001177;28;20080;-72
2023/09/11 05:07:26;;;;;;;26.50;12.30;;;21.00;99.90;;;;;;5017601;28;20041;-71
2023/09/11 05:09:51;;;;;;;31.88;11.85;;;21.00;99.90;;;;;;5017174;28;20103;-71
2023/09/11 05:12:17;;;;;;;37.60;13.43;;;21.10;99.90;;;;;;5017458;28;20041;-71
2023/09/11 05:14:42;;;;;;;31.20;12.68;;;21.00;99.90;;;;;;5017480;28;20041;-71
2023/09/11 05:17:08;;;;;;;29.25;13.20;;;21.00;99.90;;;;;;5017611;28;20049;-71
2023/09/11 05:19:34;;;;;;;29.48;11.77;;;21.00;99.90;;;;;;5017404;28;20417;-71
2023/09/11 05:21:59;;;;;;;29.17;12.60;;;21.00;99.90;;;;;;5017507;28;20049;-71
2023/09/11 05:24:25;;;;;;;33.80;12.90;;;21.00;99.90;;;;;;5017242;28;20048;-71
2023/09/11 05:26:50;;;;;;;27.48;12.45;;;21.00;99.90;;;;;;5017217;28;20040;-71
2023/09/11 05:29:16;;;;;;;28.35;11.93;;;21.00;99.90;;;;;;5017220;28;20050;-72
2023/09/11 05:31:41;;;;;;;28.50;12.40;;;21.00;99.90;;;;;;5016960;28;20038;-72
2023/09/11 05:34:07;;;;;;;23.77;12.30;;;21.00;99.90;;;;;;5000823;28;20048;-72
2023/09/11 05:36:33;;;;;;;33.47;11.95;;;21.00;99.90;;;;;;5017314;28;20037;-75
2023/09/11 05:38:59;;;;;;;28.63;12.70;;;21.00;99.90;;;;;;5017030;28;20042;-74
2023/09/11 05:41:25;;;;;;;29.70;10.95;;;21.00;99.90;;;;;;5017190;28;20040;-74
2023/09/11 05:43:51;;;;;;;24.95;11.25;;;21.10;99.90;;;;;;5016833;28;20418;-74
2023/09/11 05:46:17;;;;;;;27.23;11.45;;;21.20;99.90;;;;;;5016824;28;20171;-74
2023/09/11 05:48:43;;;;;;;35.92;12.85;;;21.20;99.90;;;;;;5016851;28;20038;-74
2023/09/11 05:51:09;;;;;;;37.15;12.75;;;21.30;99.90;;;;;;5016620;28;20048;-74
2023/09/11 05:53:35;;;;;;;30.52;11.77;;;21.30;99.90;;;;;;5016707;28;20033;-74
2023/09/11 05:56:01;;;;;;;25.95;12.23;;;21.30;99.90;;;;;;5016669;28;20120;-74
2023/09/11 05:58:27;;;;;;;29.70;12.98;;;21.40;99.90;;;;;;5016638;28;20128;-75
2023/09/11 06:00:53;;;;;;;31.95;11.75;;;21.40;99.90;;;;;;5016785;28;20063;-75
2023/09/11 06:03:19;;;;;;;26.60;11.95;;;21.50;99.90;;;;;;5016786;28;20104;-75
2023/09/11 06:05:44;;;;;;;31.15;12.40;;;21.50;99.90;;;;;;5016452;28;20513;-75
2023/09/11 06:08:11;;;;;;;30.75;11.82;;;21.60;99.90;;;;;;5000469;28;20038;-75
2023/09/11 06:10:37;;;;;;;27.23;11.98;;;21.60;99.90;;;;;;5000000;28;20045;-75
2023/09/11 06:13:03;;;;;;;28.55;12.18;;;21.60;99.90;;;;;;5016788;28;20042;-75
2023/09/11 06:15:29;;;;;;;28.45;12.40;;;21.70;99.90;;;;;;5016373;28;20520;-75
2023/09/11 06:17:55;;;;;;;30.52;13.10;;;21.70;99.90;;;;;;5016294;28;20453;-75
2023/09/11 06:20:21;;;;;;;25.85;11.80;;;21.70;99.90;;;;;;5016518;28;20081;-75
2023/09/11 06:22:47;;;;;;;25.60;12.57;;;21.70;99.90;;;;;;5015518;28;20513;-75
2023/09/11 06:25:13;;;;;;;24.85;11.55;;;21.90;99.90;;;;;;5016224;28;20037;-76
2023/09/11 06:27:39;;;;;;;21.25;11.50;;;21.80;99.90;;;;;;5016130;28;20386;-76
2023/09/11 06:30:05;;;;;;;33.60;12.77;;;21.90;99.90;;;;;;5016289;28;20079;-76
2023/09/11 06:32:32;;;;;;;28.17;12.98;;;21.90;99.90;;;;;;5016249;28;20120;-76
2023/09/11 06:34:58;;;;;;;31.40;13.48;;;22.00;99.90;;;;;;4999741;28;20053;-75
2023/09/11 06:37:24;;;;;;;36.33;12.90;;;22.00;99.90;;;;;;5016168;28;20048;-76
2023/09/11 06:39:53;;;;;;;28.65;12.70;;;22.00;99.90;;;;;;4999963;28;20041;-76
2023/09/11 06:42:23;;;;;;;33.30;13.20;;;22.00;99.90;;;;;;5016173;28;20127;-76
2023/09/11 06:44:50;;;;;;;26.75;12.98;;;22.10;99.90;;;;;;4999408;28;20037;-76
2023/09/11 06:47:16;;;;;;;24.73;12.50;;;22.10;99.90;;;;;;5015708;28;20461;-76
2023/09/11 06:49:41;;;;;;;33.40;13.25;;;22.10;99.90;;;;;;4999353;28;20497;-76
2023/09/11 06:52:07;;;;;;;28.20;13.18;;;22.20;99.90;;;;;;5015519;28;20073;-76
2023/09/11 06:54:33;;;;;;;24.83;12.35;;;22.20;99.90;;;;;;5015534;28;20081;-76
2023/09/11 06:56:58;;;;;;;26.85;14.00;;;22.20;99.90;;;;;;5015660;28;20120;-76
2023/09/11 06:59:24;;;;;;;30.65;13.95;;;22.30;99.90;;;;;;4999345;28;20091;-76
2023/09/11 07:01:50;;;;;;;28.48;12.70;;;22.30;99.90;;;;;;5015561;28;20041;-76
2023/09/11 07:04:17;;;;;;;34.30;13.75;;;22.30;99.90;;;;;;4999233;28;20041;-76
2023/09/11 07:06:42;;;;;;;20.48;11.52;;;22.40;99.90;;;;;;5015589;28;20060;-76
2023/09/11 07:09:08;;;;;;;25.00;13.52;;;22.50;99.90;;;;;;4999207;28;20034;-76
2023/09/11 07:11:34;;;;;;;31.50;14.35;;;22.60;99.90;;;;;;5015613;28;20029;-76
2023/09/11 07:14:01;;;;;;;31.25;13.73;;;22.60;99.90;;;;;;4999094;28;20033;-76
2023/09/11 07:16:26;;;;;;;30.85;13.30;;;22.60;99.90;;;;;;5015476;28;20116;-76
2023/09/11 07:18:52;;;;;;;25.38;12.98;;;22.70;99.90;;;;;;5015465;28;20122;-77
2023/09/11 07:21:18;;;;;;;25.45;13.77;;;22.80;99.90;;;;;;4999272;28;20037;-76
2023/09/11 07:23:43;;;;;;;26.40;12.77;;;22.80;99.90;;;;;;5015392;28;20052;-76
2023/09/11 07:26:09;;;;;;;25.95;13.82;;;22.80;99.90;;;;;;5015272;28;20042;-73
2023/09/11 07:28:54;;;;;;;29.63;14.20;;;22.90;99.90;;;;;;5015480;28;20038;-73
2023/09/11 07:31:20;;;;;;;30.73;13.55;;;23.00;99.90;;;;;;5015491;28;20045;-73
2023/09/11 07:33:45;;;;;;;26.35;13.30;;;23.00;99.90;;;;;;5017530;28;20464;-73
2023/09/11 07:36:11;;;;;;;28.45;13.23;;;23.00;99.90;;;;;;5019619;28;20076;-73
2023/09/11 07:38:37;;;;;;;28.77;13.52;;;23.20;99.90;;;;;;5019334;28;20494;-71
2023/09/11 07:41:02;;;;;;;23.40;12.48;;;23.20;99.90;;;;;;5019211;28;20053;-70
2023/09/11 07:43:28;;;;;;;22.58;13.02;;;23.20;99.90;;;;;;5020001;28;20045;-70
2023/09/11 07:45:53;;;;;;;27.65;12.50;;;23.30;99.90;;;;;;5019095;28;20041;-70
2023/09/11 07:48:19;;;;;;;25.17;13.00;;;23.40;99.90;;;;;;5019103;28;20049;-70
2023/09/11 07:50:44;;;;;;;22.17;12.77;;;23.50;99.90;;;;;;5019025;28;20041;-70
2023/09/11 07:53:10;;;;;;;23.40;12.70;;;23.60;99.90;;;;;;5002608;28;20084;-70
2023/09/11 07:55:37;;;;;;;28.55;12.48;;;23.60;99.90;;;;;;5002593;28;20037;-70
2023/09/11 07:58:03;;;;;;;27.70;12.30;;;23.70;99.90;;;;;;5019168;28;20068;-70
2023/09/11 08:00:30;;;;;;;25.75;13.40;;;23.80;99.90;;;;;;5018838;28;20033;-70
2023/09/11 08:02:56;;;;;;;25.55;11.98;;;23.90;99.90;;;;;;5018691;28;20049;-71
2023/09/11 08:05:22;;;;;;;24.48;12.10;;;24.10;99.90;;;;;;5018702;28;20562;-71
2023/09/11 08:07:50;;;;;;;21.88;12.85;;;24.10;99.90;;;;;;5018718;28;20116;-71
2023/09/11 08:10:16;;;;;;;19.40;11.75;;;24.20;99.90;;;;;;5018703;28;20041;-70
2023/09/11 08:12:41;;;;;;;27.83;11.80;;;24.30;99.90;;;;;;5018586;28;20045;-70
2023/09/11 08:15:08;;;;;;;20.05;11.10;;;24.40;99.90;;;;;;5018598;28;20128;-70
2023/09/11 08:17:33;;;;;;;22.38;11.05;;;24.50;99.90;;;;;;5018872;28;20041;-70
2023/09/11 08:19:59;;;;;;;22.92;11.80;;;24.60;99.90;;;;;;5018833;28;20505;-70
2023/09/11 08:22:24;;;;;;;26.55;10.98;;;24.70;99.90;;;;;;5018364;28;20099;-70
2023/09/11 08:24:50;;;;;;;21.17;10.65;;;24.90;99.90;;;;;;5018554;28;20037;-71
2023/09/11 08:27:16;;;;;;;24.63;11.10;;;25.00;99.90;;;;;;5002035;28;20581;-71
2023/09/11 08:29:42;;;;;;;21.58;10.98;;;25.20;99.90;;;;;;5018319;28;20052;-70
2023/09/11 08:32:08;;;;;;;19.10;11.07;;;25.30;99.90;;;;;;5018168;28;20132;-70
2023/09/11 08:34:33;;;;;;;28.63;10.95;;;25.50;99.90;;;;;;5018555;28;20037;-70
2023/09/11 08:36:59;;;;;;;18.63;10.48;;;25.70;99.90;;;;;;5018208;28;20494;-70
2023/09/11 08:39:25;;;;;;;18.80;10.25;;;25.80;99.90;;;;;;5018389;28;20076;-70
2023/09/11 08:41:52;;;;;;;17.17;9.93;;;25.90;99.90;;;;;;5018104;28;20041;-70
2023/09/11 08:44:17;;;;;;;22.67;10.43;;;26.10;99.90;;;;;;5017613;28;20076;-70
2023/09/11 08:46:46;;;;;;;19.85;10.05;;;26.20;99.90;;;;;;5017716;28;20080;-70
2023/09/11 08:49:13;;;;;;;17.25;9.35;;;26.30;99.90;;;;;;5017997;28;20125;-70
2023/09/11 08:51:46;;;;;;;20.02;9.00;;;26.40;99.40;;;;;;5017835;28;20048;-71
2023/09/11 08:54:14;;;;;;;17.83;9.60;;;26.50;99.00;;;;;;5017954;28;20056;-71
2023/09/11 08:56:41;;;;;;;19.80;9.40;;;26.70;98.10;;;;;;5017793;28;20087;-71
2023/09/11 08:59:08;;;;;;;19.08;8.98;;;26.80;97.70;;;;;;5017850;28;20494;-71
2023/09/11 09:01:34;;;;;;;23.40;8.77;;;26.90;97.20;;;;;;5017976;28;20378;-70
2023/09/11 09:04:00;;;;;;;15.55;8.77;;;27.00;96.70;;;;;;5017634;28;20521;-70
2023/09/11 09:06:27;;;;;;;18.20;7.82;;;27.10;96.90;;;;;;5017676;28;20034;-70
2023/09/11 09:08:53;;;;;;;17.52;8.20;;;27.30;96.30;;;;;;5017637;28;20045;-70
2023/09/11 09:11:20;;;;;;;15.55;7.93;;;27.40;95.20;;;;;;5017751;28;20544;-70
2023/09/11 09:13:46;;;;;;;15.10;7.82;;;27.60;95.10;;;;;;5017826;28;20148;-70
2023/09/11 09:16:11;;;;;;;17.73;8.98;;;27.80;94.10;;;;;;5017469;28;20577;-72
2023/09/11 09:18:37;;;;;;;18.35;7.95;;;28.00;93.80;;;;;;5017412;28;20045;-72
2023/09/11 09:21:05;;;;;;;19.60;7.78;;;28.20;93.60;;;;;;5001056;28;20120;-72
2023/09/11 09:23:35;;;;;;;13.25;8.02;;;28.40;92.90;;;;;;5017292;28;20413;-72
2023/09/11 09:26:06;;;;;;;14.85;8.45;;;28.60;92.00;;;;;;5017185;28;20037;-72
2023/09/11 09:28:33;;;;;;;14.70;8.15;;;28.70;91.50;;;;;;5017216;28;20128;-73
2023/09/11 09:30:59;;;;;;;16.15;7.72;;;28.80;91.00;;;;;;5016943;28;20041;-73
2023/09/11 09:33:25;;;;;;;17.13;7.38;;;29.00;90.70;;;;;;5017191;28;20044;-73
2023/09/11 09:35:51;;;;;;;20.63;8.45;;;29.20;90.00;;;;;;5000708;28;20052;-73
2023/09/11 09:38:20;;;;;;;17.95;9.07;;;29.40;89.10;;;;;;5017072;28;20137;-73
2023/09/11 09:40:46;;;;;;;16.77;8.27;;;29.50;87.70;;;;;;5016921;28;20047;-73
2023/09/11 09:43:16;;;;;;;14.38;8.82;;;29.60;88.10;;;;;;5016966;28;20128;-73
2023/09/11 09:45:42;;;;;;;19.08;8.88;;;29.70;87.20;;;;;;5016787;28;20506;-73
2023/09/11 09:48:11;;;;;;;20.83;9.88;;;29.70;86.30;;;;;;5016806;28;20044;-73
2023/09/11 09:50:59;;;;;;;16.30;9.27;;;29.80;86.80;;;;;;5016860;28;20037;-73
2023/09/11 09:53:33;;;;;;;15.75;8.93;;;29.90;86.70;;;;;;5016792;28;20041;-73
2023/09/11 09:56:05;;;;;;;17.13;8.13;;;29.90;86.20;;;;;;5016361;28;20038;-73
2023/09/11 09:58:35;;;;;;;16.58;8.55;;;30.00;85.00;;;;;;5016167;28;20045;-73
2023/09/11 10:01:11;;;;;;;14.77;8.68;;;30.00;83.60;;;;;;5016755;28;20042;-73
2023/09/11 10:03:43;;;;;;;17.15;8.45;;;30.20;83.30;;;;;;5016598;28;20076;-73
2023/09/11 10:06:14;;;;;;;13.77;7.32;;;30.30;82.80;;;;;;5016550;28;20042;-73
2023/09/11 10:08:40;;;;;;;17.40;7.72;;;30.50;83.20;;;;;;5016524;28;20382;-73
2023/09/11 10:11:06;;;;;;;16.08;7.55;;;30.70;82.40;;;;;;5016513;28;20034;-73
2023/09/11 10:13:35;;;;;;;18.40;7.53;;;30.70;81.50;;;;;;5016438;28;20034;-73
2023/09/11 10:16:01;;;;;;;13.52;6.72;;;30.80;79.80;;;;;;5016650;28;20510;-73
2023/09/11 10:18:30;;;;;;;24.27;8.15;;;30.90;80.20;;;;;;5016594;28;20104;-73
2023/09/11 10:20:57;;;;;;;16.50;8.23;;;30.90;78.80;;;;;;5016203;28;20099;-75
2023/09/11 10:23:23;;;;;;;11.98;7.07;;;31.00;77.90;;;;;;5016263;28;20045;-75
2023/09/11 10:25:53;;;;;;;17.30;8.20;;;31.00;77.20;;;;;;4999893;28;20040;-75
2023/09/11 10:28:40;;;;;;;17.98;8.90;;;31.10;77.40;;;;;;5016628;28;20107;-75
2023/09/11 10:31:24;;;;;;;16.23;9.18;;;31.10;78.20;;;;;;5016185;28;20059;-76
2023/09/11 10:34:01;;;;;;;19.98;9.38;;;31.10;77.10;;;;;;5016260;28;20049;-76
2023/09/11 10:36:32;;;;;;;17.98;10.27;;;31.00;77.80;;;;;;5016273;28;20487;-75
2023/09/11 10:39:01;;;;;;;19.63;10.52;;;30.90;77.40;;;;;;5016347;28;20072;-76
2023/09/11 10:41:27;;;;;;;21.75;10.05;;;30.90;77.30;;;;;;5015987;28;20498;-75
2023/09/11 10:43:53;;;;;;;19.65;9.60;;;31.00;77.40;;;;;;4999579;28;20489;-76
2023/09/11 10:46:22;;;;;;;17.20;10.10;;;31.10;77.90;;;;;;5015807;28;20037;-73
2023/09/11 10:48:50;;;;;;;18.33;10.48;;;31.20;77.60;;;;;;5015838;28;20096;-73
2023/09/11 10:51:16;;;;;;;17.35;9.10;;;31.30;77.70;;;;;;5015751;28;20038;-74
2023/09/11 10:53:42;;;;;;;14.32;10.30;;;31.30;78.20;;;;;;5015687;28;20120;-74
2023/09/11 10:56:08;;;;;;;15.68;9.07;;;31.30;77.20;;;;;;5015864;28;20413;-74
2023/09/11 10:58:35;;;;;;;14.77;8.60;;;31.40;77.60;;;;;;5015944;28;20494;-73
2023/09/11 11:01:04;;;;;;;19.08;8.50;;;31.30;78.10;;;;;;5015542;28;20051;-73
2023/09/11 11:03:32;;;;;;;12.82;8.98;;;31.50;77.80;;;;;;5015547;28;20038;-73
2023/09/11 11:06:02;;;;;;;15.73;9.00;;;31.60;76.40;;;;;;5015473;28;20037;-73
2023/09/11 11:08:36;;;;;;;16.33;9.10;;;31.80;75.70;;;;;;5015392;28;20045;-73
2023/09/11 11:11:02;;;;;;;14.38;10.05;;;31.90;76.00;;;;;;5015434;28;20410;-73
2023/09/11 11:13:29;;;;;;;14.75;9.68;;;31.80;76.10;;;;;;5015724;28;20111;-73
2023/09/11 11:16:20;;;;;;;19.27;10.43;;;31.90;75.70;;;;;;5015738;28;20407;-73
2023/09/11 11:18:45;;;;;;;17.58;11.27;;;31.80;74.70;;;;;;4999272;28;20075;-73
2023/09/11 11:21:11;;;;;;;16.98;9.07;;;31.70;74.60;;;;;;5015322;28;20037;-73
2023/09/11 11:23:57;;;;;;;17.25;10.45;;;31.80;75.50;;;;;;5015406;28;20041;-73
2023/09/11 11:26:27;;;;;;;15.73;7.78;;;32.00;74.30;;;;;;4999009;28;20053;-74
2023/09/11 11:28:53;;;;;;;16.77;8.93;;;32.00;74.80;;;;;;5015291;28;20079;-74
2023/09/11 11:31:20;;;;;;;15.93;9.43;;;32.20;74.20;;;;;;5015169;28;20041;-74
2023/09/11 11:33:47;;;;;;;18.48;9.45;;;32.30;72.90;;;;;;4999011;28;20034;-74
2023/09/11 11:36:14;;;;;;;14.20;8.93;;;32.30;72.90;;;;;;5015275;28;20076;-74
2023/09/11 11:38:42;;;;;;;19.17;8.52;;;32.30;72.40;;;;;;5015172;28;20403;-74
2023/09/11 11:41:08;;;;;;;16.00;8.65;;;32.40;72.40;;;;;;4998681;28;20041;-74
2023/09/11 11:43:34;;;;;;;13.00;7.10;;;32.50;72.30;;;;;;5015497;28;20045;-74
2023/09/11 11:46:00;;;;;;;17.33;7.80;;;32.60;72.00;;;;;;5015016;28;20454;-73
2023/09/11 11:48:27;;;;;;;15.52;8.52;;;32.70;70.90;;;;;;4999043;28;20034;-73
2023/09/11 11:50:53;;;;;;;12.63;7.82;;;32.70;70.70;;;;;;5015009;28;20410;-73
2023/09/11 11:53:21;;;;;;;12.27;7.07;;;32.50;69.40;;;;;;5015154;28;20034;-74
2023/09/11 11:55:48;;;;;;;11.70;5.72;;;32.70;69.40;;;;;;5015340;28;20041;-74
2023/09/11 11:58:14;;;;;;;11.10;4.30;;;32.70;67.20;;;;;;4998963;28;20517;-73
2023/09/11 12:01:01;;;;;;;10.63;5.63;;;32.90;64.90;;;;;;5015142;28;20042;-74
2023/09/11 12:03:28;;;;;;;13.70;6.25;;;32.90;64.10;;;;;;5014660;28;20045;-74
2023/09/11 12:05:55;;;;;;;10.00;6.07;;;33.10;66.00;;;;;;5014824;28;20068;-74
2023/09/11 12:08:21;;;;;;;10.45;4.88;;;33.10;65.30;;;;;;5014982;28;20459;-74
2023/09/11 12:10:50;;;;;;;9.85;4.00;;;33.20;64.90;;;;;;5014879;28;20124;-74
2023/09/11 12:13:24;;;;;;;8.70;3.80;;;33.50;62.60;;;;;;5014981;28;20069;-74
2023/09/11 12:15:57;;;;;;;8.10;4.45;;;33.60;61.70;;;;;;5014962;28;20129;-74
2023/09/11 12:18:24;;;;;;;9.98;4.93;;;33.70;60.90;;;;;;5014958;28;20046;-74
2023/09/11 12:21:07;;;;;;;12.05;5.63;;;33.70;60.90;;;;;;5016971;28;20091;-74
2023/09/11 12:23:34;;;;;;;10.57;4.88;;;33.80;63.70;;;;;;5018593;28;20087;-74
2023/09/11 12:26:01;;;;;;;9.20;4.05;;;33.90;61.20;;;;;;5018425;28;20064;-74
2023/09/11 12:28:28;;;;;;;13.52;4.15;;;34.00;58.70;;;;;;5018444;28;20044;-74
2023/09/11 12:30:54;;;;;;;12.10;3.90;;;33.90;58.60;;;;;;5018263;28;20037;-74